createdAt,value
2023-03-02T00:02:01.413Z,-0.48
2023-03-02T00:04:45.140Z,-0.80
2023-03-02T00:07:19.874Z,-1.11
2023-03-02T00:09:48.817Z,-1.36
2023-03-02T00:12:17.970Z,-1.56
2023-03-02T00:14:46.941Z,-0.88
2023-03-02T00:17:15.819Z,2.16
2023-03-02T00:19:44.987Z,4.27
2023-03-02T00:22:13.986Z,4.98
2023-03-02T00:24:42.898Z,3.85
2023-03-02T00:27:11.970Z,2.57
2023-03-02T00:29:42.296Z,1.63
2023-03-02T00:32:15.007Z,0.90
2023-03-02T00:34:43.992Z,0.32
2023-03-02T00:37:12.907Z,-0.13
2023-03-02T00:39:42.170Z,-0.54
2023-03-02T00:42:11.075Z,-0.89
2023-03-02T00:44:39.972Z,-1.18
2023-03-02T00:47:08.856Z,-1.43
2023-03-02T00:49:37.820Z,-1.66
2023-03-02T00:52:06.770Z,-1.87
2023-03-02T00:54:35.714Z,-1.59
2023-03-02T00:57:05.289Z,1.14
2023-03-02T00:59:34.189Z,3.78
2023-03-02T01:02:03.677Z,4.86
2023-03-02T01:04:35.896Z,3.82
2023-03-02T01:07:08.390Z,2.46
2023-03-02T01:09:40.813Z,1.43
2023-03-02T01:12:11.539Z,0.68
2023-03-02T01:14:47.173Z,0.11
2023-03-02T01:17:16.872Z,-0.37
2023-03-02T01:19:45.952Z,-0.78
2023-03-02T01:22:14.964Z,-1.12
2023-03-02T01:24:44.055Z,-1.44
2023-03-02T01:27:13.089Z,-1.71
2023-03-02T01:29:42.111Z,-1.93
2023-03-02T01:32:11.594Z,-2.15
2023-03-02T01:34:40.753Z,-2.32
2023-03-02T01:37:09.695Z,-1.95
2023-03-02T01:39:38.738Z,0.93
2023-03-02T01:42:07.713Z,3.62
2023-03-02T01:44:47.894Z,4.68
2023-03-02T01:47:23.039Z,3.44
2023-03-02T01:50:18.538Z,2.05
2023-03-02T01:52:49.072Z,0.92
2023-03-02T01:55:24.861Z,0.24
2023-03-02T01:57:56.516Z,-0.29
2023-03-02T02:00:29.803Z,-0.74
2023-03-02T02:03:09.258Z,-1.13
2023-03-02T02:05:41.070Z,-1.51
2023-03-02T02:08:10.709Z,-1.82
2023-03-02T02:10:40.525Z,-2.07
2023-03-02T02:13:11.213Z,-2.28
2023-03-02T02:15:41.666Z,-2.47
2023-03-02T02:18:11.173Z,-2.63
2023-03-02T02:20:45.403Z,-2.18
2023-03-02T02:23:27.494Z,0.88
2023-03-02T02:25:59.893Z,3.60
2023-03-02T02:28:44.029Z,4.41
2023-03-02T02:31:22.506Z,3.05
2023-03-02T02:33:57.069Z,1.68
2023-03-02T02:36:33.768Z,0.68
2023-03-02T02:39:06.065Z,-0.11
2023-03-02T02:41:38.823Z,-0.66
2023-03-02T02:44:14.803Z,-1.09
2023-03-02T02:46:44.977Z,-1.47
2023-03-02T02:49:29.209Z,-1.79
2023-03-02T02:51:59.723Z,-2.10
2023-03-02T02:54:31.227Z,-2.34
2023-03-02T02:57:02.747Z,-2.56
2023-03-02T02:59:53.981Z,-2.77
2023-03-02T03:02:27.356Z,-2.20
2023-03-02T03:05:03.223Z,0.82
2023-03-02T03:07:33.161Z,3.22
2023-03-02T03:10:26.855Z,4.08
2023-03-02T03:12:56.509Z,2.67
2023-03-02T03:15:25.399Z,1.39
2023-03-02T03:17:56.879Z,0.48
2023-03-02T03:20:27.174Z,-0.20
2023-03-02T03:22:59.394Z,-0.71
2023-03-02T03:25:28.459Z,-1.15
2023-03-02T03:27:57.361Z,-1.53
2023-03-02T03:30:26.265Z,-1.84
2023-03-02T03:32:55.169Z,-2.12
2023-03-02T03:35:24.133Z,-2.37
2023-03-02T03:37:53.242Z,-2.59
2023-03-02T03:40:22.299Z,-2.80
2023-03-02T03:42:51.160Z,-2.98
2023-03-02T03:45:20.060Z,-3.16
2023-03-02T03:47:48.991Z,-2.84
2023-03-02T03:50:18.236Z,-0.13
2023-03-02T03:52:47.499Z,2.51
2023-03-02T03:55:16.734Z,3.75
2023-03-02T03:57:45.634Z,2.80
2023-03-02T04:00:19.654Z,1.45
2023-03-02T04:02:50.672Z,0.40
2023-03-02T04:05:20.240Z,-0.36
2023-03-02T04:07:49.171Z,-0.92
2023-03-02T04:10:18.218Z,-1.35
2023-03-02T04:12:47.138Z,-1.74
2023-03-02T04:15:17.355Z,-2.07
2023-03-02T04:17:46.377Z,-2.37
2023-03-02T04:20:16.895Z,-2.62
2023-03-02T04:22:48.314Z,-2.84
2023-03-02T04:25:19.889Z,-3.05
2023-03-02T04:27:50.929Z,-2.73
2023-03-02T04:30:23.511Z,0.10
2023-03-02T04:32:52.685Z,2.79
2023-03-02T04:35:21.768Z,4.35
2023-03-02T04:37:50.812Z,3.94
2023-03-02T04:40:20.093Z,2.50
2023-03-02T04:42:49.207Z,1.37
2023-03-02T04:45:18.630Z,0.59
2023-03-02T04:47:47.569Z,0.03
2023-03-02T04:50:16.775Z,-0.39
2023-03-02T04:52:45.803Z,0.69
2023-03-02T04:55:24.855Z,3.49
2023-03-02T04:57:53.758Z,5.42
2023-03-02T05:00:22.780Z,5.10
2023-03-02T05:02:51.701Z,3.70
2023-03-02T05:05:24.233Z,2.49
2023-03-02T05:07:54.083Z,1.58
2023-03-02T05:10:23.819Z,1.36
2023-03-02T05:13:02.737Z,3.55
2023-03-02T05:15:38.174Z,5.87
2023-03-02T05:18:09.210Z,6.35
2023-03-02T05:20:38.800Z,4.94
2023-03-02T05:23:09.564Z,3.59
2023-03-02T05:25:39.426Z,2.59
2023-03-02T05:28:08.362Z,1.85
2023-03-02T05:30:37.988Z,2.37
2023-03-02T05:33:07.108Z,4.84
2023-03-02T05:35:36.352Z,6.58
2023-03-02T05:38:05.401Z,6.58
2023-03-02T05:40:34.575Z,5.20
2023-03-02T05:43:03.947Z,3.96
2023-03-02T05:45:36.278Z,3.01
2023-03-02T05:48:06.361Z,2.29
2023-03-02T05:50:35.306Z,1.86
2023-03-02T05:53:04.616Z,3.44
2023-03-02T05:55:37.326Z,5.81
2023-03-02T05:58:09.209Z,7.06
2023-03-02T06:00:38.256Z,6.63
2023-03-02T06:03:07.532Z,5.24
2023-03-02T06:05:36.701Z,4.12
2023-03-02T06:08:06.664Z,3.27
2023-03-02T06:10:36.350Z,2.87
2023-03-02T06:13:05.263Z,4.59
2023-03-02T06:15:34.251Z,6.60
2023-03-02T06:18:03.485Z,7.57
2023-03-02T06:20:32.687Z,6.76
2023-03-02T06:23:01.592Z,5.37
2023-03-02T06:25:30.779Z,4.27
2023-03-02T06:27:59.837Z,3.71
2023-03-02T06:30:29.289Z,5.33
2023-03-02T06:32:58.334Z,7.33
2023-03-02T06:35:27.472Z,8.11
2023-03-02T06:37:56.581Z,7.00
2023-03-02T06:40:25.838Z,5.58
2023-03-02T06:42:54.756Z,4.49
2023-03-02T06:45:23.630Z,4.21
2023-03-02T06:47:52.633Z,6.16
2023-03-02T06:50:22.038Z,7.97
2023-03-02T06:52:51.045Z,8.56
2023-03-02T06:55:20.076Z,7.35
2023-03-02T06:57:49.283Z,5.93
2023-03-02T07:00:25.977Z,4.82
2023-03-02T07:02:56.215Z,4.49
2023-03-02T07:05:25.495Z,6.29
2023-03-02T07:07:54.390Z,7.98
2023-03-02T07:10:23.395Z,8.56
2023-03-02T07:12:53.717Z,7.37
2023-03-02T07:15:22.597Z,6.02
2023-03-02T07:17:51.547Z,4.96
2023-03-02T07:20:20.754Z,4.15
2023-03-02T07:22:49.794Z,4.74
2023-03-02T07:25:18.765Z,6.99
2023-03-02T07:27:47.703Z,8.49
2023-03-02T07:30:21.194Z,8.45
2023-03-02T07:32:50.970Z,7.05
2023-03-02T07:35:20.034Z,5.86
2023-03-02T07:37:49.059Z,4.99
2023-03-02T07:40:18.200Z,4.74
2023-03-02T07:42:47.197Z,6.86
2023-03-02T07:45:17.042Z,8.77
2023-03-02T07:47:46.021Z,9.15
2023-03-02T07:50:15.104Z,7.81
2023-03-02T07:52:44.162Z,6.44
2023-03-02T07:55:13.175Z,5.41
2023-03-02T07:57:42.098Z,4.69
2023-03-02T08:00:11.915Z,6.15
2023-03-02T08:02:42.067Z,8.48
2023-03-02T08:05:12.271Z,9.17
2023-03-02T08:07:42.357Z,7.96
2023-03-02T08:10:11.847Z,6.54
2023-03-02T08:12:42.935Z,5.46
2023-03-02T08:15:12.470Z,5.08
2023-03-02T08:17:41.643Z,7.02
2023-03-02T08:20:11.546Z,8.88
2023-03-02T08:22:40.494Z,9.42
2023-03-02T08:25:09.865Z,8.27
2023-03-02T08:27:40.529Z,6.91
2023-03-02T08:30:10.828Z,5.85
2023-03-02T08:32:40.569Z,5.52
2023-03-02T08:35:10.186Z,7.76
2023-03-02T08:37:39.133Z,9.49
2023-03-02T08:40:08.866Z,8.99
2023-03-02T08:42:37.815Z,7.56
2023-03-02T08:45:07.398Z,6.45
2023-03-02T08:47:36.296Z,5.64
2023-03-02T08:50:06.273Z,6.13
2023-03-02T08:52:35.209Z,8.38
2023-03-02T08:55:04.676Z,9.79
2023-03-02T08:57:34.910Z,9.18
2023-03-02T09:00:08.897Z,7.72
2023-03-02T09:02:38.426Z,6.42
2023-03-02T09:05:07.709Z,5.48
2023-03-02T09:07:36.589Z,5.97
2023-03-02T09:10:05.814Z,7.93
2023-03-02T09:12:34.766Z,9.43
2023-03-02T09:15:04.027Z,10.07
2023-03-02T09:17:32.970Z,8.85
2023-03-02T09:20:02.176Z,7.44
2023-03-02T09:22:31.534Z,6.39
2023-03-02T09:25:02.798Z,6.14
2023-03-02T09:27:31.873Z,8.01
2023-03-02T09:30:00.797Z,9.95
2023-03-02T09:32:29.994Z,9.76
2023-03-02T09:34:59.057Z,8.35
2023-03-02T09:37:28.714Z,7.01
2023-03-02T09:39:58.021Z,5.99
2023-03-02T09:42:44.469Z,5.30
2023-03-02T09:45:29.362Z,6.16
2023-03-02T09:48:03.967Z,8.35
2023-03-02T09:50:36.159Z,9.75
2023-03-02T09:53:24.928Z,8.84
2023-03-02T09:55:59.168Z,7.31
2023-03-02T09:58:36.049Z,6.14
2023-03-02T10:01:16.156Z,5.84
2023-03-02T10:03:56.672Z,7.90
2023-03-02T10:06:27.026Z,9.71
2023-03-02T10:08:56.440Z,9.81
2023-03-02T10:11:45.219Z,8.45
2023-03-02T10:14:20.864Z,6.85
2023-03-02T10:17:08.668Z,6.12
2023-03-02T10:19:44.544Z,7.96
2023-03-02T10:22:23.139Z,9.33
2023-03-02T10:24:52.004Z,9.70
2023-03-02T10:27:34.209Z,8.61
2023-03-02T10:30:37.368Z,7.23
2023-03-02T10:33:15.370Z,5.97
2023-03-02T10:35:48.052Z,5.26
2023-03-02T10:38:19.963Z,5.27
2023-03-02T10:41:03.897Z,7.37
2023-03-02T10:43:42.897Z,8.94
2023-03-02T10:46:14.284Z,9.01
2023-03-02T10:48:59.602Z,7.96
2023-03-02T10:51:37.941Z,6.80
2023-03-02T10:54:11.101Z,5.98
2023-03-02T10:56:48.465Z,6.18
2023-03-02T10:59:27.167Z,8.40
2023-03-02T11:02:02.662Z,9.83
2023-03-02T11:04:32.132Z,9.16
2023-03-02T11:07:15.970Z,7.82
2023-03-02T11:10:00.318Z,6.64
2023-03-02T11:12:31.024Z,5.85
2023-03-02T11:15:21.297Z,5.77
2023-03-02T11:18:31.794Z,7.68
2023-03-02T11:21:08.199Z,9.37
2023-03-02T11:23:57.983Z,10.14
2023-03-02T11:26:46.158Z,8.90
2023-03-02T11:29:36.632Z,7.36
2023-03-02T11:32:08.786Z,6.55
2023-03-02T11:34:49.411Z,8.04
2023-03-02T11:37:30.126Z,9.24
2023-03-02T11:40:14.978Z,9.67
2023-03-02T11:42:45.744Z,8.26
2023-03-02T11:45:16.730Z,7.07
2023-03-02T11:48:03.201Z,6.26
2023-03-02T11:50:57.586Z,5.60
2023-03-02T11:53:39.491Z,6.24
2023-03-02T11:56:08.805Z,8.59
2023-03-02T11:58:38.798Z,9.82
2023-03-02T12:01:13.466Z,9.30
2023-03-02T12:03:47.405Z,8.09
2023-03-02T12:06:22.693Z,7.15
2023-03-02T12:09:12.456Z,6.48
2023-03-02T12:11:46.121Z,5.91
2023-03-02T12:14:50.664Z,5.96
2023-03-02T12:17:25.481Z,8.70
2023-03-02T12:20:16.416Z,10.33
2023-03-02T12:22:45.347Z,9.63
2023-03-02T12:25:20.137Z,8.29
2023-03-02T12:27:51.425Z,7.22
2023-03-02T12:30:27.689Z,6.49
2023-03-02T12:33:11.529Z,5.92
2023-03-02T12:35:40.925Z,6.06
2023-03-02T12:38:48.014Z,8.16
2023-03-02T12:41:39.152Z,10.09
2023-03-02T12:44:16.758Z,9.43
2023-03-02T12:46:47.433Z,8.19
2023-03-02T12:49:45.758Z,7.29
2023-03-02T12:52:35.981Z,6.52
2023-03-02T12:55:17.515Z,5.98
2023-03-02T12:57:54.690Z,6.04
2023-03-02T13:00:27.090Z,8.22
2023-03-02T13:02:58.729Z,9.98
2023-03-02T13:05:33.563Z,9.87
2023-03-02T13:08:06.482Z,8.64
2023-03-02T13:10:40.361Z,7.61
2023-03-02T13:13:34.433Z,6.86
2023-03-02T13:16:06.484Z,6.25
2023-03-02T13:18:39.521Z,6.29
2023-03-02T13:21:13.279Z,8.41
2023-03-02T13:23:47.817Z,10.01
2023-03-02T13:26:43.277Z,9.51
2023-03-02T13:29:23.335Z,8.08
2023-03-02T13:31:52.252Z,7.07
2023-03-02T13:34:28.453Z,6.40
2023-03-02T13:36:57.492Z,5.86
2023-03-02T13:39:31.826Z,5.49
2023-03-02T13:42:03.066Z,5.72
2023-03-02T13:44:35.277Z,8.07
2023-03-02T13:47:04.291Z,10.06
2023-03-02T13:49:35.906Z,10.36
2023-03-02T13:52:22.449Z,9.17
2023-03-02T13:54:51.365Z,7.95
2023-03-02T13:57:31.418Z,7.12
2023-03-02T14:00:00.631Z,6.45
2023-03-02T14:02:30.948Z,5.91
2023-03-02T14:05:00.120Z,5.49
2023-03-02T14:07:29.144Z,5.70
2023-03-02T14:09:58.144Z,7.92
2023-03-02T14:12:31.062Z,9.65
2023-03-02T14:15:02.743Z,9.92
2023-03-02T14:17:31.793Z,8.75
2023-03-02T14:20:00.899Z,7.68
2023-03-02T14:22:30.322Z,6.90
2023-03-02T14:24:59.232Z,6.33
2023-03-02T14:27:30.233Z,5.91
2023-03-02T14:30:00.095Z,6.12
2023-03-02T14:32:29.434Z,8.23
2023-03-02T14:34:58.552Z,9.75
2023-03-02T14:37:29.088Z,9.35
2023-03-02T14:39:58.340Z,8.27
2023-03-02T14:42:27.305Z,7.36
2023-03-02T14:44:56.236Z,6.63
2023-03-02T14:47:25.134Z,6.10
2023-03-02T14:49:54.797Z,5.66
2023-03-02T14:52:37.500Z,5.35
2023-03-02T14:55:12.677Z,5.06
2023-03-02T14:57:41.654Z,5.38
2023-03-02T15:00:14.665Z,7.62
2023-03-02T15:02:43.914Z,9.79
2023-03-02T15:05:13.132Z,10.13
2023-03-02T15:07:42.125Z,9.02
2023-03-02T15:10:17.410Z,7.95
2023-03-02T15:12:46.469Z,7.15
2023-03-02T15:15:15.583Z,6.57
2023-03-02T15:17:44.670Z,6.12
2023-03-02T15:20:16.744Z,5.76
2023-03-02T15:22:45.836Z,5.43
2023-03-02T15:25:14.880Z,5.16
2023-03-02T15:27:43.940Z,5.29
2023-03-02T15:30:13.416Z,7.42
2023-03-02T15:32:42.442Z,9.57
2023-03-02T15:35:12.595Z,10.35
2023-03-02T15:37:41.605Z,9.36
2023-03-02T15:40:11.372Z,8.20
2023-03-02T15:42:40.373Z,7.31
2023-03-02T15:45:09.776Z,6.59
2023-03-02T15:47:38.874Z,6.04
2023-03-02T15:50:08.794Z,5.59
2023-03-02T15:52:37.790Z,5.58
2023-03-02T15:55:07.296Z,7.51
2023-03-02T15:57:40.180Z,9.15
2023-03-02T16:00:09.798Z,9.30
2023-03-02T16:02:39.528Z,8.22
2023-03-02T16:05:09.268Z,7.25
2023-03-02T16:07:38.305Z,6.52
2023-03-02T16:10:08.158Z,5.99
2023-03-02T16:12:37.140Z,5.57
2023-03-02T16:15:06.746Z,5.22
2023-03-02T16:17:35.645Z,5.18
2023-03-02T16:20:05.214Z,6.79
2023-03-02T16:22:34.152Z,8.92
2023-03-02T16:25:03.447Z,9.81
2023-03-02T16:27:32.354Z,8.94
2023-03-02T16:30:02.067Z,7.82
2023-03-02T16:32:33.352Z,6.93
2023-03-02T16:35:02.416Z,6.26
2023-03-02T16:37:31.369Z,5.75
2023-03-02T16:40:00.411Z,5.31
2023-03-02T16:42:30.529Z,4.92
2023-03-02T16:44:59.640Z,4.91
2023-03-02T16:47:28.631Z,6.84
2023-03-02T16:49:58.554Z,8.74
2023-03-02T16:52:27.680Z,9.40
2023-03-02T16:54:56.650Z,8.51
2023-03-02T16:57:25.639Z,7.37
2023-03-02T16:59:54.841Z,6.51
2023-03-02T17:02:23.819Z,5.88
2023-03-02T17:04:53.047Z,5.38
2023-03-02T17:07:21.928Z,4.95
2023-03-02T17:09:50.934Z,5.00
2023-03-02T17:12:19.932Z,6.56
2023-03-02T17:14:49.355Z,8.10
2023-03-02T17:17:18.333Z,9.33
2023-03-02T17:19:47.258Z,9.56
2023-03-02T17:22:17.150Z,8.42
2023-03-02T17:24:46.243Z,7.33
2023-03-02T17:27:24.533Z,6.53
2023-03-02T17:29:55.410Z,5.88
2023-03-02T17:32:24.504Z,5.36
2023-03-02T17:34:54.115Z,4.95
2023-03-02T17:37:25.797Z,4.88
2023-03-02T17:39:54.760Z,6.23
2023-03-02T17:42:23.755Z,8.18
2023-03-02T17:44:52.856Z,9.51
2023-03-02T17:47:21.864Z,8.99
2023-03-02T17:49:50.766Z,7.74
2023-03-02T17:52:20.151Z,6.76
2023-03-02T17:54:49.226Z,5.99
2023-03-02T17:57:22.625Z,5.42
2023-03-02T17:59:51.961Z,5.23
2023-03-02T18:02:20.854Z,6.75
2023-03-02T18:04:49.760Z,8.24
2023-03-02T18:07:18.744Z,9.05
2023-03-02T18:09:47.853Z,8.51
2023-03-02T18:12:16.958Z,7.39
2023-03-02T18:14:45.941Z,6.47
2023-03-02T18:17:15.254Z,5.70
2023-03-02T18:19:44.162Z,5.13
2023-03-02T18:22:13.648Z,4.71
2023-03-02T18:24:42.656Z,4.72
2023-03-02T18:27:11.641Z,6.86
2023-03-02T18:29:40.547Z,8.95
2023-03-02T18:32:11.529Z,9.41
2023-03-02T18:34:40.598Z,8.30
2023-03-02T18:37:09.572Z,7.17
2023-03-02T18:39:38.771Z,6.31
2023-03-02T18:42:08.494Z,5.65
2023-03-02T18:44:37.546Z,5.12
2023-03-02T18:47:07.768Z,4.68
2023-03-02T18:49:38.475Z,4.31
2023-03-02T18:52:07.467Z,4.60
2023-03-02T18:54:36.441Z,6.99
2023-03-02T18:57:07.532Z,8.78
2023-03-02T18:59:37.921Z,9.28
2023-03-02T19:02:11.750Z,8.22
2023-03-02T19:04:41.746Z,7.01
2023-03-02T19:07:10.869Z,6.15
2023-03-02T19:09:39.801Z,5.47
2023-03-02T19:12:08.841Z,4.95
2023-03-02T19:14:38.052Z,4.96
2023-03-02T19:17:12.307Z,6.86
2023-03-02T19:19:45.566Z,8.75
2023-03-02T19:22:16.758Z,9.57
2023-03-02T19:24:46.855Z,8.59
2023-03-02T19:27:15.809Z,7.36
2023-03-02T19:29:44.825Z,6.46
2023-03-02T19:32:14.909Z,5.79
2023-03-02T19:34:44.529Z,5.25
2023-03-02T19:37:14.315Z,4.85
2023-03-02T19:39:43.383Z,6.02
2023-03-02T19:42:12.428Z,7.95
2023-03-02T19:44:41.433Z,9.08
2023-03-02T19:47:10.417Z,8.29
2023-03-02T19:49:39.359Z,7.12
2023-03-02T19:52:09.480Z,6.21
2023-03-02T19:54:38.410Z,5.52
2023-03-02T19:57:08.245Z,4.99
2023-03-02T19:59:39.880Z,4.56
2023-03-02T20:02:09.090Z,4.19
2023-03-02T20:04:38.229Z,4.33
2023-03-02T20:07:07.162Z,6.49
2023-03-02T20:09:36.640Z,8.50
2023-03-02T20:12:07.748Z,9.06
2023-03-02T20:14:38.696Z,8.00
2023-03-02T20:17:07.669Z,6.85
2023-03-02T20:19:36.594Z,5.97
2023-03-02T20:22:07.010Z,5.32
2023-03-02T20:24:35.929Z,4.81
2023-03-02T20:27:07.067Z,4.38
2023-03-02T20:29:37.281Z,4.35
2023-03-02T20:32:09.992Z,6.25
2023-03-02T20:34:41.054Z,8.07
2023-03-02T20:37:13.721Z,8.98
2023-03-02T20:39:48.084Z,8.25
2023-03-02T20:42:17.161Z,7.02
2023-03-02T20:44:46.354Z,6.08
2023-03-02T20:47:15.826Z,5.34
2023-03-02T20:49:44.868Z,4.78
2023-03-02T20:52:16.530Z,4.32
2023-03-02T20:54:50.917Z,4.38
2023-03-02T20:57:23.761Z,6.26
2023-03-02T20:59:52.852Z,7.94
2023-03-02T21:02:22.557Z,8.81
2023-03-02T21:04:51.648Z,7.95
2023-03-02T21:07:21.170Z,6.78
2023-03-02T21:09:50.167Z,5.82
2023-03-02T21:12:19.159Z,5.10
2023-03-02T21:14:48.370Z,4.56
2023-03-02T21:17:17.356Z,4.34
2023-03-02T21:19:46.476Z,5.93
2023-03-02T21:22:15.389Z,7.92
2023-03-02T21:24:44.354Z,8.96
2023-03-02T21:27:13.891Z,8.16
2023-03-02T21:29:42.857Z,6.85
2023-03-02T21:32:12.014Z,5.89
2023-03-02T21:34:40.955Z,5.12
2023-03-02T21:37:09.950Z,4.52
2023-03-02T21:39:38.958Z,4.31
2023-03-02T21:42:08.055Z,6.02
2023-03-02T21:44:37.047Z,8.11
2023-03-02T21:47:06.041Z,8.96
2023-03-02T21:49:35.040Z,7.87
2023-03-02T21:52:04.261Z,6.53
2023-03-02T21:54:33.547Z,5.51
2023-03-02T21:57:02.545Z,4.75
2023-03-02T21:59:31.540Z,4.15
2023-03-02T22:02:01.349Z,4.00
2023-03-02T22:04:30.975Z,5.94
2023-03-02T22:06:59.970Z,7.89
2023-03-02T22:09:28.861Z,8.55
2023-03-02T22:11:58.157Z,7.54
2023-03-02T22:14:27.467Z,6.30
2023-03-02T22:16:58.309Z,5.36
2023-03-02T22:19:30.707Z,4.64
2023-03-02T22:22:08.070Z,4.32
2023-03-02T22:24:39.730Z,6.02
2023-03-02T22:27:30.422Z,7.82
2023-03-02T22:30:02.902Z,8.57
2023-03-02T22:32:37.293Z,7.62
2023-03-02T22:35:27.060Z,6.32
2023-03-02T22:38:12.086Z,5.27
2023-03-02T22:40:41.419Z,4.52
2023-03-02T22:43:29.492Z,4.28
2023-03-02T22:46:21.863Z,6.39
2023-03-02T22:48:52.454Z,8.28
2023-03-02T22:51:30.080Z,8.41
2023-03-02T22:54:00.787Z,7.10
2023-03-02T22:56:43.908Z,5.94
2023-03-02T22:59:27.784Z,4.97
2023-03-02T23:02:02.103Z,4.27
2023-03-02T23:04:35.412Z,4.36
2023-03-02T23:07:18.070Z,6.86
2023-03-02T23:09:47.998Z,8.83
2023-03-02T23:12:24.492Z,8.39
2023-03-02T23:14:59.599Z,6.93
2023-03-02T23:17:36.151Z,5.75
2023-03-02T23:20:09.370Z,4.93
2023-03-02T23:22:39.316Z,4.30
2023-03-02T23:25:09.002Z,4.07
2023-03-02T23:27:38.088Z,5.95
2023-03-02T23:30:08.674Z,7.80
2023-03-02T23:32:37.907Z,8.35
2023-03-02T23:35:07.126Z,7.34
2023-03-02T23:37:36.121Z,6.16
2023-03-02T23:40:05.852Z,5.23
2023-03-02T23:42:34.830Z,4.53
2023-03-02T23:45:04.750Z,3.98
2023-03-02T23:47:33.743Z,3.85
2023-03-02T23:50:03.067Z,5.60
2023-03-02T23:52:32.147Z,7.40
2023-03-02T23:55:01.142Z,8.20
2023-03-02T23:57:30.155Z,7.72
